sensor_id;sensor_type;location;lat;lon;timestamp;pressure;altitude;pressure_sealevel;temperature;humidity
80188;BME280;73735;52.134;5.436;2023-12-22T00:00:56;100350.56;;;6.87;82.55
80188;BME280;73735;52.134;5.436;2023-12-22T00:03:22;100349.72;;;6.86;83.54
80188;BME280;73735;52.134;5.436;2023-12-22T00:05:49;100353.38;;;6.84;83.84
80188;BME280;73735;52.134;5.436;2023-12-22T00:08:15;100389.63;;;6.77;83.71
80188;BME280;73735;52.134;5.436;2023-12-22T00:10:42;100381.59;;;6.67;82.97
80188;BME280;73735;52.134;5.436;2023-12-22T00:13:08;100397.06;;;6.58;83.28
80188;BME280;73735;52.134;5.436;2023-12-22T00:15:35;100405.34;;;6.52;83.73
80188;BME280;73735;52.134;5.436;2023-12-22T00:18:01;100407.31;;;6.48;83.89
80188;BME280;73735;52.134;5.436;2023-12-22T00:20:28;100391.94;;;6.44;83.94
80188;BME280;73735;52.134;5.436;2023-12-22T00:22:54;100423.63;;;6.39;84.02
80188;BME280;73735;52.134;5.436;2023-12-22T00:25:21;100397.69;;;6.36;83.41
80188;BME280;73735;52.134;5.436;2023-12-22T00:27:47;100390.69;;;6.36;83.42
80188;BME280;73735;52.134;5.436;2023-12-22T00:30:14;100405.75;;;6.33;83.17
80188;BME280;73735;52.134;5.436;2023-12-22T00:32:41;100404.28;;;6.29;83.17
80188;BME280;73735;52.134;5.436;2023-12-22T00:35:07;100420.91;;;6.28;82.17
80188;BME280;73735;52.134;5.436;2023-12-22T00:37:34;100416.59;;;6.27;82.13
80188;BME280;73735;52.134;5.436;2023-12-22T00:40:01;100424.03;;;6.20;81.68
80188;BME280;73735;52.134;5.436;2023-12-22T00:42:30;100400.59;;;6.19;82.17
80188;BME280;73735;52.134;5.436;2023-12-22T00:44:56;100398.19;;;6.16;81.51
80188;BME280;73735;52.134;5.436;2023-12-22T00:47:23;100394.44;;;6.20;82.09
80188;BME280;73735;52.134;5.436;2023-12-22T00:49:49;100404.91;;;6.20;82.14
80188;BME280;73735;52.134;5.436;2023-12-22T00:52:16;100405.09;;;6.17;81.70
80188;BME280;73735;52.134;5.436;2023-12-22T00:54:42;100421.53;;;6.19;81.78
80188;BME280;73735;52.134;5.436;2023-12-22T00:57:09;100421.31;;;6.22;81.99
80188;BME280;73735;52.134;5.436;2023-12-22T00:59:35;100425.72;;;6.21;82.12
80188;BME280;73735;52.134;5.436;2023-12-22T01:02:02;100427.50;;;6.21;81.99
80188;BME280;73735;52.134;5.436;2023-12-22T01:04:28;100424.63;;;6.24;82.07
80188;BME280;73735;52.134;5.436;2023-12-22T01:06:55;100429.16;;;6.22;82.22
80188;BME280;73735;52.134;5.436;2023-12-22T01:09:21;100434.25;;;6.23;82.49
80188;BME280;73735;52.134;5.436;2023-12-22T01:11:48;100442.00;;;6.25;82.74
80188;BME280;73735;52.134;5.436;2023-12-22T01:14:15;100436.69;;;6.26;82.65
80188;BME280;73735;52.134;5.436;2023-12-22T01:16:41;100442.66;;;6.28;82.68
80188;BME280;73735;52.134;5.436;2023-12-22T01:19:08;100445.25;;;6.28;82.99
80188;BME280;73735;52.134;5.436;2023-12-22T01:21:35;100446.94;;;6.29;83.42
80188;BME280;73735;52.134;5.436;2023-12-22T01:24:01;100443.38;;;6.30;83.16
80188;BME280;73735;52.134;5.436;2023-12-22T01:26:28;100430.41;;;6.29;83.52
80188;BME280;73735;52.134;5.436;2023-12-22T01:28:54;100439.81;;;6.31;83.11
80188;BME280;73735;52.134;5.436;2023-12-22T01:31:21;100444.97;;;6.33;83.09
80188;BME280;73735;52.134;5.436;2023-12-22T01:33:47;100424.97;;;6.32;83.56
80188;BME280;73735;52.134;5.436;2023-12-22T01:36:14;100439.09;;;6.29;83.39
80188;BME280;73735;52.134;5.436;2023-12-22T01:38:40;100424.44;;;6.27;83.90
80188;BME280;73735;52.134;5.436;2023-12-22T01:41:06;100431.53;;;6.25;83.88
80188;BME280;73735;52.134;5.436;2023-12-22T01:43:34;100433.22;;;6.26;84.11
80188;BME280;73735;52.134;5.436;2023-12-22T01:46:01;100430.50;;;6.27;83.93
80188;BME280;73735;52.134;5.436;2023-12-22T01:48:29;100425.38;;;6.26;83.76
80188;BME280;73735;52.134;5.436;2023-12-22T01:50:57;100425.63;;;6.23;83.91
80188;BME280;73735;52.134;5.436;2023-12-22T01:53:25;100423.94;;;6.22;83.54
80188;BME280;73735;52.134;5.436;2023-12-22T01:55:52;100431.03;;;6.20;84.43
80188;BME280;73735;52.134;5.436;2023-12-22T01:58:22;100434.59;;;6.19;84.52
80188;BME280;73735;52.134;5.436;2023-12-22T02:00:49;100441.50;;;6.20;84.22
80188;BME280;73735;52.134;5.436;2023-12-22T02:03:16;100445.69;;;6.22;84.16
80188;BME280;73735;52.134;5.436;2023-12-22T02:05:46;100443.16;;;6.21;84.44
80188;BME280;73735;52.134;5.436;2023-12-22T02:08:12;100435.44;;;6.19;84.37
80188;BME280;73735;52.134;5.436;2023-12-22T02:10:39;100436.38;;;6.18;84.81
80188;BME280;73735;52.134;5.436;2023-12-22T02:13:05;100433.75;;;6.18;84.59
80188;BME280;73735;52.134;5.436;2023-12-22T02:15:33;100432.72;;;6.21;84.72
80188;BME280;73735;52.134;5.436;2023-12-22T02:18:17;100433.44;;;6.23;84.92
80188;BME280;73735;52.134;5.436;2023-12-22T02:20:45;100423.00;;;6.23;84.87
80188;BME280;73735;52.134;5.436;2023-12-22T02:23:11;100421.09;;;6.25;85.25
80188;BME280;73735;52.134;5.436;2023-12-22T02:25:38;100416.59;;;6.27;84.57
80188;BME280;73735;52.134;5.436;2023-12-22T02:28:09;100391.31;;;6.27;84.92
80188;BME280;73735;52.134;5.436;2023-12-22T02:30:43;100408.66;;;6.28;84.98
80188;BME280;73735;52.134;5.436;2023-12-22T02:33:15;100415.75;;;6.26;84.74
80188;BME280;73735;52.134;5.436;2023-12-22T02:35:44;100401.97;;;6.24;84.97
80188;BME280;73735;52.134;5.436;2023-12-22T02:38:12;100401.84;;;6.26;84.81
80188;BME280;73735;52.134;5.436;2023-12-22T02:40:39;100396.53;;;6.27;84.73
80188;BME280;73735;52.134;5.436;2023-12-22T02:43:06;100382.31;;;6.31;84.49
80188;BME280;73735;52.134;5.436;2023-12-22T02:45:33;100371.88;;;6.31;84.43
80188;BME280;73735;52.134;5.436;2023-12-22T02:48:00;100377.00;;;6.33;84.45
80188;BME280;73735;52.134;5.436;2023-12-22T02:50:27;100381.69;;;6.41;83.88
80188;BME280;73735;52.134;5.436;2023-12-22T02:52:54;100371.66;;;6.47;83.02
80188;BME280;73735;52.134;5.436;2023-12-22T02:55:20;100365.97;;;6.53;82.47
80188;BME280;73735;52.134;5.436;2023-12-22T02:57:47;100360.34;;;6.59;81.71
80188;BME280;73735;52.134;5.436;2023-12-22T03:00:14;100378.97;;;6.67;80.83
80188;BME280;73735;52.134;5.436;2023-12-22T03:02:41;100383.75;;;6.73;80.49
80188;BME280;73735;52.134;5.436;2023-12-22T03:05:07;100391.19;;;6.80;79.89
80188;BME280;73735;52.134;5.436;2023-12-22T03:07:34;100390.25;;;6.81;79.86
80188;BME280;73735;52.134;5.436;2023-12-22T03:10:00;100401.66;;;6.80;79.44
80188;BME280;73735;52.134;5.436;2023-12-22T03:12:27;100395.97;;;6.86;79.07
80188;BME280;73735;52.134;5.436;2023-12-22T03:14:53;100406.34;;;6.87;79.21
80188;BME280;73735;52.134;5.436;2023-12-22T03:17:20;100420.78;;;6.93;79.12
80188;BME280;73735;52.134;5.436;2023-12-22T03:19:46;100413.56;;;6.96;78.13
80188;BME280;73735;52.134;5.436;2023-12-22T03:22:12;100427.25;;;7.00;78.08
80188;BME280;73735;52.134;5.436;2023-12-22T03:24:39;100411.13;;;7.06;77.95
80188;BME280;73735;52.134;5.436;2023-12-22T03:27:05;100429.34;;;7.07;77.95
80188;BME280;73735;52.134;5.436;2023-12-22T03:29:32;100412.59;;;7.10;77.81
80188;BME280;73735;52.134;5.436;2023-12-22T03:31:58;100411.50;;;7.13;77.63
80188;BME280;73735;52.134;5.436;2023-12-22T03:34:25;100425.22;;;7.16;77.71
80188;BME280;73735;52.134;5.436;2023-12-22T03:36:51;100452.13;;;7.18;77.33
80188;BME280;73735;52.134;5.436;2023-12-22T03:39:18;100466.16;;;7.17;76.25
80188;BME280;73735;52.134;5.436;2023-12-22T03:41:44;100464.72;;;7.00;77.14
80188;BME280;73735;52.134;5.436;2023-12-22T03:44:11;100475.41;;;6.85;77.96
80188;BME280;73735;52.134;5.436;2023-12-22T03:46:37;100517.38;;;6.70;79.29
80188;BME280;73735;52.134;5.436;2023-12-22T03:49:04;100484.81;;;6.49;80.55
80188;BME280;73735;52.134;5.436;2023-12-22T03:51:30;100474.09;;;6.27;81.88
80188;BME280;73735;52.134;5.436;2023-12-22T03:53:57;100459.88;;;6.18;82.67
80188;BME280;73735;52.134;5.436;2023-12-22T03:56:23;100472.22;;;6.16;82.46
80188;BME280;73735;52.134;5.436;2023-12-22T03:58:50;100476.69;;;6.14;82.56
80188;BME280;73735;52.134;5.436;2023-12-22T04:01:16;100469.88;;;6.12;82.72
80188;BME280;73735;52.134;5.436;2023-12-22T04:03:43;100463.00;;;6.11;83.11
80188;BME280;73735;52.134;5.436;2023-12-22T04:06:09;100462.78;;;6.14;83.33
80188;BME280;73735;52.134;5.436;2023-12-22T04:08:36;100470.53;;;6.15;83.44
80188;BME280;73735;52.134;5.436;2023-12-22T04:11:02;100461.66;;;6.18;83.41
80188;BME280;73735;52.134;5.436;2023-12-22T04:13:29;100468.66;;;6.17;83.30
80188;BME280;73735;52.134;5.436;2023-12-22T04:15:55;100460.72;;;6.19;84.01
80188;BME280;73735;52.134;5.436;2023-12-22T04:18:22;100463.34;;;6.19;83.42
80188;BME280;73735;52.134;5.436;2023-12-22T04:20:49;100473.47;;;6.23;83.71
80188;BME280;73735;52.134;5.436;2023-12-22T04:23:21;100468.13;;;6.25;84.08
80188;BME280;73735;52.134;5.436;2023-12-22T04:25:48;100467.19;;;6.26;84.08
80188;BME280;73735;52.134;5.436;2023-12-22T04:28:14;100467.19;;;6.26;84.11
80188;BME280;73735;52.134;5.436;2023-12-22T04:30:41;100474.31;;;6.24;83.84
80188;BME280;73735;52.134;5.436;2023-12-22T04:33:07;100480.38;;;6.24;84.08
80188;BME280;73735;52.134;5.436;2023-12-22T04:35:34;100474.94;;;6.27;84.05
80188;BME280;73735;52.134;5.436;2023-12-22T04:38:00;100466.28;;;6.27;83.98
80188;BME280;73735;52.134;5.436;2023-12-22T04:40:28;100460.09;;;6.28;84.00
80188;BME280;73735;52.134;5.436;2023-12-22T04:42:55;100470.47;;;6.29;83.71
80188;BME280;73735;52.134;5.436;2023-12-22T04:45:21;100480.72;;;6.32;83.93
80188;BME280;73735;52.134;5.436;2023-12-22T04:47:48;100482.31;;;6.35;83.99
80188;BME280;73735;52.134;5.436;2023-12-22T04:50:15;100475.06;;;6.38;83.60
80188;BME280;73735;52.134;5.436;2023-12-22T04:52:41;100475.72;;;6.42;83.55
80188;BME280;73735;52.134;5.436;2023-12-22T04:55:08;100481.03;;;6.41;83.46
80188;BME280;73735;52.134;5.436;2023-12-22T04:57:34;100486.25;;;6.41;83.78
80188;BME280;73735;52.134;5.436;2023-12-22T05:00:00;100472.25;;;6.42;83.55
80188;BME280;73735;52.134;5.436;2023-12-22T05:02:27;100475.72;;;6.42;83.81
80188;BME280;73735;52.134;5.436;2023-12-22T05:04:56;100476.66;;;6.41;83.38
80188;BME280;73735;52.134;5.436;2023-12-22T05:07:22;100480.84;;;6.44;83.46
80188;BME280;73735;52.134;5.436;2023-12-22T05:09:49;100476.44;;;6.44;83.78
80188;BME280;73735;52.134;5.436;2023-12-22T05:12:15;100472.88;;;6.45;83.66
80188;BME280;73735;52.134;5.436;2023-12-22T05:14:42;100467.66;;;6.45;83.59
80188;BME280;73735;52.134;5.436;2023-12-22T05:17:08;100467.47;;;6.48;83.64
80188;BME280;73735;52.134;5.436;2023-12-22T05:19:34;100467.38;;;6.50;83.31
80188;BME280;73735;52.134;5.436;2023-12-22T05:22:01;100458.56;;;6.51;83.60
80188;BME280;73735;52.134;5.436;2023-12-22T05:24:27;100450.63;;;6.52;83.73
80188;BME280;73735;52.134;5.436;2023-12-22T05:26:54;100442.56;;;6.55;83.58
80188;BME280;73735;52.134;5.436;2023-12-22T05:29:20;100450.84;;;6.62;83.48
80188;BME280;73735;52.134;5.436;2023-12-22T05:31:47;100463.28;;;6.71;83.17
80188;BME280;73735;52.134;5.436;2023-12-22T05:34:13;100456.81;;;6.77;82.95
80188;BME280;73735;52.134;5.436;2023-12-22T05:36:40;100444.25;;;6.82;82.65
80188;BME280;73735;52.134;5.436;2023-12-22T05:39:06;100455.13;;;6.88;82.47
80188;BME280;73735;52.134;5.436;2023-12-22T05:41:36;100451.16;;;6.95;82.52
80188;BME280;73735;52.134;5.436;2023-12-22T05:44:05;100450.59;;;7.03;81.81
80188;BME280;73735;52.134;5.436;2023-12-22T05:46:37;100447.34;;;7.12;81.38
80188;BME280;73735;52.134;5.436;2023-12-22T05:49:07;100443.91;;;7.12;81.58
80188;BME280;73735;52.134;5.436;2023-12-22T05:51:38;100453.41;;;7.13;81.22
80188;BME280;73735;52.134;5.436;2023-12-22T05:54:08;100455.06;;;7.14;81.24
80188;BME280;73735;52.134;5.436;2023-12-22T05:56:36;100447.75;;;7.19;80.91
80188;BME280;73735;52.134;5.436;2023-12-22T05:59:03;100457.28;;;7.20;80.88
80188;BME280;73735;52.134;5.436;2023-12-22T06:01:29;100456.00;;;7.25;80.34
80188;BME280;73735;52.134;5.436;2023-12-22T06:03:56;100448.88;;;7.27;80.07
80188;BME280;73735;52.134;5.436;2023-12-22T06:06:22;100455.56;;;7.31;80.26
80188;BME280;73735;52.134;5.436;2023-12-22T06:08:49;100446.34;;;7.38;80.03
80188;BME280;73735;52.134;5.436;2023-12-22T06:11:16;100450.63;;;7.39;80.20
80188;BME280;73735;52.134;5.436;2023-12-22T06:13:42;100429.69;;;7.39;80.00
80188;BME280;73735;52.134;5.436;2023-12-22T06:16:13;100447.06;;;7.40;80.38
80188;BME280;73735;52.134;5.436;2023-12-22T06:18:45;100436.34;;;7.43;80.53
80188;BME280;73735;52.134;5.436;2023-12-22T06:21:11;100448.41;;;7.46;80.80
80188;BME280;73735;52.134;5.436;2023-12-22T06:23:38;100439.28;;;7.52;80.26
80188;BME280;73735;52.134;5.436;2023-12-22T06:26:08;100456.47;;;7.56;80.53
80188;BME280;73735;52.134;5.436;2023-12-22T06:28:34;100452.75;;;7.58;80.41
80188;BME280;73735;52.134;5.436;2023-12-22T06:31:02;100444.78;;;7.60;80.41
80188;BME280;73735;52.134;5.436;2023-12-22T06:33:29;100431.69;;;7.60;80.39
80188;BME280;73735;52.134;5.436;2023-12-22T06:35:56;100439.53;;;7.60;80.85
80188;BME280;73735;52.134;5.436;2023-12-22T06:38:22;100435.97;;;7.61;80.82
80188;BME280;73735;52.134;5.436;2023-12-22T06:40:49;100445.41;;;7.63;80.93
80188;BME280;73735;52.134;5.436;2023-12-22T06:43:16;100443.63;;;7.64;81.05
80188;BME280;73735;52.134;5.436;2023-12-22T06:45:43;100438.28;;;7.65;80.92
80188;BME280;73735;52.134;5.436;2023-12-22T06:48:10;100436.50;;;7.66;80.76
80188;BME280;73735;52.134;5.436;2023-12-22T06:50:37;100441.28;;;7.72;80.56
80188;BME280;73735;52.134;5.436;2023-12-22T06:53:06;100442.00;;;7.74;80.72
80188;BME280;73735;52.134;5.436;2023-12-22T06:55:47;100440.84;;;7.78;80.60
80188;BME280;73735;52.134;5.436;2023-12-22T06:58:13;100450.38;;;7.79;80.14
80188;BME280;73735;52.134;5.436;2023-12-22T07:00:40;100440.72;;;7.79;80.59
80188;BME280;73735;52.134;5.436;2023-12-22T07:03:07;100438.03;;;7.92;80.65
80188;BME280;73735;52.134;5.436;2023-12-22T07:05:34;100434.69;;;7.90;80.28
80188;BME280;73735;52.134;5.436;2023-12-22T07:08:03;100430.28;;;7.91;80.31
80188;BME280;73735;52.134;5.436;2023-12-22T07:10:29;100427.78;;;7.89;80.42
80188;BME280;73735;52.134;5.436;2023-12-22T07:12:56;100434.69;;;7.90;80.50
80188;BME280;73735;52.134;5.436;2023-12-22T07:15:22;100433.75;;;7.91;80.66
80188;BME280;73735;52.134;5.436;2023-12-22T07:17:49;100427.56;;;7.92;80.89
80188;BME280;73735;52.134;5.436;2023-12-22T07:20:16;100425.88;;;7.91;80.95
80188;BME280;73735;52.134;5.436;2023-12-22T07:22:44;100433.63;;;7.93;80.94
80188;BME280;73735;52.134;5.436;2023-12-22T07:25:12;100434.25;;;7.96;81.08
80188;BME280;73735;52.134;5.436;2023-12-22T07:27:40;100452.50;;;7.98;81.10
80188;BME280;73735;52.134;5.436;2023-12-22T07:30:07;100457.72;;;7.98;80.98
80188;BME280;73735;52.134;5.436;2023-12-22T07:32:33;100449.75;;;7.99;81.23
80188;BME280;73735;52.134;5.436;2023-12-22T07:35:00;100446.88;;;8.02;81.21
80188;BME280;73735;52.134;5.436;2023-12-22T07:37:27;100441.53;;;8.04;80.94
80188;BME280;73735;52.134;5.436;2023-12-22T07:39:53;100443.31;;;8.03;81.02
80188;BME280;73735;52.134;5.436;2023-12-22T07:42:20;100445.94;;;8.03;81.18
80188;BME280;73735;52.134;5.436;2023-12-22T07:44:46;100432.50;;;8.08;81.04
80188;BME280;73735;52.134;5.436;2023-12-22T07:47:13;100443.81;;;8.08;81.13
80188;BME280;73735;52.134;5.436;2023-12-22T07:49:40;100446.44;;;8.08;81.46
80188;BME280;73735;52.134;5.436;2023-12-22T07:52:07;100448.44;;;8.05;81.84
80188;BME280;73735;52.134;5.436;2023-12-22T07:54:33;100436.03;;;7.96;81.36
80188;BME280;73735;52.134;5.436;2023-12-22T07:57:00;100454.72;;;7.91;82.15
80188;BME280;73735;52.134;5.436;2023-12-22T07:59:27;100441.25;;;7.85;82.74
80188;BME280;73735;52.134;5.436;2023-12-22T08:01:57;100450.25;;;7.81;83.20
80188;BME280;73735;52.134;5.436;2023-12-22T08:04:24;100444.41;;;7.77;83.84
80188;BME280;73735;52.134;5.436;2023-12-22T08:06:51;100466.66;;;7.71;84.30
80188;BME280;73735;52.134;5.436;2023-12-22T08:09:18;100473.06;;;7.67;84.66
80188;BME280;73735;52.134;5.436;2023-12-22T08:11:45;100466.03;;;7.68;85.28
80188;BME280;73735;52.134;5.436;2023-12-22T08:14:13;100462.47;;;7.69;85.64
80188;BME280;73735;52.134;5.436;2023-12-22T08:16:40;100449.28;;;7.70;86.26
80188;BME280;73735;52.134;5.436;2023-12-22T08:19:06;100451.94;;;7.82;86.23
80188;BME280;73735;52.134;5.436;2023-12-22T08:21:33;100453.94;;;7.78;86.50
80188;BME280;73735;52.134;5.436;2023-12-22T08:24:11;100436.22;;;7.82;86.58
80188;BME280;73735;52.134;5.436;2023-12-22T08:26:48;100439.69;;;7.82;86.69
80188;BME280;73735;52.134;5.436;2023-12-22T08:29:14;100432.53;;;7.84;87.17
80188;BME280;73735;52.134;5.436;2023-12-22T08:31:42;100418.25;;;7.88;86.65
80188;BME280;73735;52.134;5.436;2023-12-22T08:34:10;100419.91;;;7.89;87.02
80188;BME280;73735;52.134;5.436;2023-12-22T08:36:37;100413.94;;;7.87;86.99
80188;BME280;73735;52.134;5.436;2023-12-22T08:39:04;100418.13;;;7.90;87.28
80188;BME280;73735;52.134;5.436;2023-12-22T08:41:34;100408.19;;;8.06;86.53
80188;BME280;73735;52.134;5.436;2023-12-22T08:44:04;100403.41;;;8.00;86.79
80188;BME280;73735;52.134;5.436;2023-12-22T08:46:32;100403.75;;;7.95;86.83
80188;BME280;73735;52.134;5.436;2023-12-22T08:48:59;100411.81;;;7.92;86.81
80188;BME280;73735;52.134;5.436;2023-12-22T08:51:26;100394.31;;;7.93;87.25
80188;BME280;73735;52.134;5.436;2023-12-22T08:53:53;100408.66;;;8.00;87.18
80188;BME280;73735;52.134;5.436;2023-12-22T08:56:24;100404.25;;;8.00;87.19
80188;BME280;73735;52.134;5.436;2023-12-22T08:58:54;100399.84;;;8.01;87.75
80188;BME280;73735;52.134;5.436;2023-12-22T09:01:21;100392.78;;;8.01;87.78
80188;BME280;73735;52.134;5.436;2023-12-22T09:03:48;100404.63;;;8.07;88.14
80188;BME280;73735;52.134;5.436;2023-12-22T09:06:22;100399.75;;;8.13;88.14
80188;BME280;73735;52.134;5.436;2023-12-22T09:08:48;100408.09;;;8.19;88.18
80188;BME280;73735;52.134;5.436;2023-12-22T09:11:17;100406.91;;;8.23;87.89
80188;BME280;73735;52.134;5.436;2023-12-22T09:13:44;100412.88;;;8.25;88.29
80188;BME280;73735;52.134;5.436;2023-12-22T09:16:11;100402.06;;;8.29;88.65
80188;BME280;73735;52.134;5.436;2023-12-22T09:18:41;100400.88;;;8.33;88.38
80188;BME280;73735;52.134;5.436;2023-12-22T09:21:09;100418.19;;;8.36;88.48
80188;BME280;73735;52.134;5.436;2023-12-22T09:23:35;100425.94;;;8.37;88.45
80188;BME280;73735;52.134;5.436;2023-12-22T09:26:02;100407.81;;;8.34;88.16
80188;BME280;73735;52.134;5.436;2023-12-22T09:28:28;100421.25;;;8.30;86.86
80188;BME280;73735;52.134;5.436;2023-12-22T09:30:55;100420.75;;;8.25;85.93
80188;BME280;73735;52.134;5.436;2023-12-22T09:33:21;100412.50;;;8.18;85.36
80188;BME280;73735;52.134;5.436;2023-12-22T09:35:49;100439.31;;;8.10;84.56
80188;BME280;73735;52.134;5.436;2023-12-22T09:38:17;100428.53;;;8.02;85.37
80188;BME280;73735;52.134;5.436;2023-12-22T09:40:43;100422.31;;;7.92;85.65
80188;BME280;73735;52.134;5.436;2023-12-22T09:43:11;100414.91;;;7.86;86.07
80188;BME280;73735;52.134;5.436;2023-12-22T09:45:41;100421.34;;;7.82;86.04
80188;BME280;73735;52.134;5.436;2023-12-22T09:48:08;100409.06;;;7.83;85.74
80188;BME280;73735;52.134;5.436;2023-12-22T09:50:38;100417.75;;;7.83;86.20
80188;BME280;73735;52.134;5.436;2023-12-22T09:53:06;100411.69;;;7.83;86.43
80188;BME280;73735;52.134;5.436;2023-12-22T09:55:34;100409.16;;;7.81;87.06
80188;BME280;73735;52.134;5.436;2023-12-22T09:58:02;100416.09;;;7.82;87.48
80188;BME280;73735;52.134;5.436;2023-12-22T10:00:31;100396.56;;;7.86;87.96
80188;BME280;73735;52.134;5.436;2023-12-22T10:02:58;100405.03;;;7.90;88.19
80188;BME280;73735;52.134;5.436;2023-12-22T10:05:24;100401.00;;;7.97;88.74
80188;BME280;73735;52.134;5.436;2023-12-22T10:07:52;100402.09;;;8.05;88.98
80188;BME280;73735;52.134;5.436;2023-12-22T10:10:19;100413.81;;;8.12;89.24
80188;BME280;73735;52.134;5.436;2023-12-22T10:12:46;100406.91;;;8.23;89.68
80188;BME280;73735;52.134;5.436;2023-12-22T10:15:14;100420.31;;;8.31;89.68
80188;BME280;73735;52.134;5.436;2023-12-22T10:17:41;100421.19;;;8.42;89.62
80188;BME280;73735;52.134;5.436;2023-12-22T10:20:08;100425.00;;;8.49;89.39
80188;BME280;73735;52.134;5.436;2023-12-22T10:22:35;100430.75;;;8.55;89.42
80188;BME280;73735;52.134;5.436;2023-12-22T10:25:02;100405.94;;;8.59;89.36
80188;BME280;73735;52.134;5.436;2023-12-22T10:27:29;100404.16;;;8.59;89.50
80188;BME280;73735;52.134;5.436;2023-12-22T10:29:56;100418.97;;;8.60;89.59
80188;BME280;73735;52.134;5.436;2023-12-22T10:32:23;100416.34;;;8.60;89.93
80188;BME280;73735;52.134;5.436;2023-12-22T10:34:53;100425.72;;;8.63;90.00
80188;BME280;73735;52.134;5.436;2023-12-22T10:37:20;100416.91;;;8.64;90.09
80188;BME280;73735;52.134;5.436;2023-12-22T10:39:52;100407.13;;;8.66;90.00
80188;BME280;73735;52.134;5.436;2023-12-22T10:42:18;100431.47;;;8.68;90.17
80188;BME280;73735;52.134;5.436;2023-12-22T10:44:45;100444.59;;;8.68;89.91
80188;BME280;73735;52.134;5.436;2023-12-22T10:47:14;100418.97;;;8.71;90.00
80188;BME280;73735;52.134;5.436;2023-12-22T10:49:41;100414.44;;;8.73;89.97
80188;BME280;73735;52.134;5.436;2023-12-22T10:52:11;100428.00;;;8.78;89.70
80188;BME280;73735;52.134;5.436;2023-12-22T10:54:41;100428.03;;;8.90;89.50
80188;BME280;73735;52.134;5.436;2023-12-22T10:57:10;100427.78;;;8.93;89.51
80188;BME280;73735;52.134;5.436;2023-12-22T10:59:40;100424.31;;;8.92;89.48
80188;BME280;73735;52.134;5.436;2023-12-22T11:02:22;100412.97;;;8.92;89.45
80188;BME280;73735;52.134;5.436;2023-12-22T11:05:02;100427.44;;;8.97;89.09
80188;BME280;73735;52.134;5.436;2023-12-22T11:07:34;100415.84;;;9.00;89.19
80188;BME280;73735;52.134;5.436;2023-12-22T11:10:07;100411.22;;;9.03;88.92
80188;BME280;73735;52.134;5.436;2023-12-22T11:12:37;100396.28;;;9.04;88.95
80188;BME280;73735;52.134;5.436;2023-12-22T11:15:05;100413.44;;;9.08;88.67
80188;BME280;73735;52.134;5.436;2023-12-22T11:17:33;100413.22;;;9.11;88.20
80188;BME280;73735;52.134;5.436;2023-12-22T11:20:08;100400.09;;;9.11;88.11
80188;BME280;73735;52.134;5.436;2023-12-22T11:22:36;100404.16;;;9.15;87.70
80188;BME280;73735;52.134;5.436;2023-12-22T11:25:04;100402.25;;;9.17;87.27
80188;BME280;73735;52.134;5.436;2023-12-22T11:27:33;100403.63;;;9.21;87.05
80188;BME280;73735;52.134;5.436;2023-12-22T11:30:04;100393.13;;;9.21;87.06
80188;BME280;73735;52.134;5.436;2023-12-22T11:32:31;100402.81;;;9.20;86.59
80188;BME280;73735;52.134;5.436;2023-12-22T11:34:59;100390.50;;;9.21;86.82
80188;BME280;73735;52.134;5.436;2023-12-22T11:37:26;100398.53;;;9.19;87.29
80188;BME280;73735;52.134;5.436;2023-12-22T11:39:53;100396.47;;;9.23;87.02
80188;BME280;73735;52.134;5.436;2023-12-22T11:42:28;100399.59;;;9.28;86.96
80188;BME280;73735;52.134;5.436;2023-12-22T11:44:57;100389.06;;;9.28;86.89
80188;BME280;73735;52.134;5.436;2023-12-22T11:47:23;100392.19;;;9.33;86.77
80188;BME280;73735;52.134;5.436;2023-12-22T11:49:50;100383.59;;;9.31;86.68
80188;BME280;73735;52.134;5.436;2023-12-22T11:52:18;100382.63;;;9.32;86.56
80188;BME280;73735;52.134;5.436;2023-12-22T11:54:46;100378.09;;;9.34;86.23
80188;BME280;73735;52.134;5.436;2023-12-22T11:57:38;100388.22;;;9.39;85.85
80188;BME280;73735;52.134;5.436;2023-12-22T12:00:07;100386.28;;;9.41;85.41
80188;BME280;73735;52.134;5.436;2023-12-22T12:02:35;100373.75;;;9.44;85.00
80188;BME280;73735;52.134;5.436;2023-12-22T12:05:02;100375.44;;;9.45;85.06
80188;BME280;73735;52.134;5.436;2023-12-22T12:07:43;100356.19;;;9.45;84.88
80188;BME280;73735;52.134;5.436;2023-12-22T12:10:12;100356.06;;;9.46;85.18
80188;BME280;73735;52.134;5.436;2023-12-22T12:12:38;100343.91;;;9.45;85.52
80188;BME280;73735;52.134;5.436;2023-12-22T12:15:17;100342.94;;;9.46;85.54
80188;BME280;73735;52.134;5.436;2023-12-22T12:17:43;100333.13;;;9.48;85.80
80188;BME280;73735;52.134;5.436;2023-12-22T12:20:11;100335.63;;;9.50;85.57
80188;BME280;73735;52.134;5.436;2023-12-22T12:22:38;100334.81;;;9.49;85.70
80188;BME280;73735;52.134;5.436;2023-12-22T12:25:09;100345.03;;;9.52;85.20
80188;BME280;73735;52.134;5.436;2023-12-22T12:28:04;100335.13;;;9.56;85.17
80188;BME280;73735;52.134;5.436;2023-12-22T12:30:32;100346.47;;;9.57;85.24
80188;BME280;73735;52.134;5.436;2023-12-22T12:33:06;100351.59;;;9.58;84.57
80188;BME280;73735;52.134;5.436;2023-12-22T12:35:33;100340.44;;;9.66;84.59
80188;BME280;73735;52.134;5.436;2023-12-22T12:38:05;100350.13;;;9.65;84.60
80188;BME280;73735;52.134;5.436;2023-12-22T12:40:32;100320.53;;;9.63;84.78
80188;BME280;73735;52.134;5.436;2023-12-22T12:43:02;100312.06;;;9.60;85.28
80188;BME280;73735;52.134;5.436;2023-12-22T12:45:28;100320.19;;;9.57;85.07
80188;BME280;73735;52.134;5.436;2023-12-22T12:48:00;100350.41;;;9.62;84.66
80188;BME280;73735;52.134;5.436;2023-12-22T12:50:29;100344.88;;;9.65;84.55
80188;BME280;73735;52.134;5.436;2023-12-22T12:52:57;100345.59;;;9.67;84.45
80188;BME280;73735;52.134;5.436;2023-12-22T12:55:25;100344.63;;;9.68;84.39
80188;BME280;73735;52.134;5.436;2023-12-22T12:57:53;100354.19;;;9.69;84.17
80188;BME280;73735;52.134;5.436;2023-12-22T13:00:27;100356.56;;;9.72;84.05
80188;BME280;73735;52.134;5.436;2023-12-22T13:02:55;100352.13;;;9.73;84.00